Archival Weather

Fukuoka

Fukuoka, Japan (RJFF)

Report from: Tuesday, August 16, 2022 4:30 AM JST
Current time: Sunday, November 27, 2022 5:56 PM JST

Current weather
Weather history
Weather forecast

Temperature29.0°C (84.2°F)
Heat index33.7°C (92.7°F)
Dew point24.0°C (75.2°F)
Winds 8 kts (4.1 m/s, 9.2 mph) Vrb
Winds variableWinds variable from Southeast (130°) to South-Southwest (200°)
Visibility6.2 mi. (10 km)
Clouds Few clouds 3,600 ft. (1,097 m)
Altimeter29.71 in.Hg (1006 mB)
Relative humidity75 %
Density altitude2,251 ft. (686 m)
Remarks Fully automated report
No significant changes expected in the next two hours
Flight conditions Visual Meteorological Conditions
Raw dataRJFF 151930Z AUTO 16008KT 130V200 9999 FEW036 //////TCU 29/24 Q1006 NOSIG
An error has occurred. This application may no longer respond until reloaded. Reload 🗙